sensor_id;sensor_type;location;lat;lon;timestamp;P1;durP1;ratioP1;P2;durP2;ratioP2
80481;SDS011;69797;43.864;21.410;2023-07-24T00:01:02;14.57;;;6.82;;
80481;SDS011;69797;43.864;21.410;2023-07-24T00:03:29;15.25;;;7.65;;
80481;SDS011;69797;43.864;21.410;2023-07-24T00:05:59;17.53;;;7.60;;
80481;SDS011;69797;43.864;21.410;2023-07-24T00:08:26;13.02;;;7.20;;
80481;SDS011;69797;43.864;21.410;2023-07-24T00:10:53;16.30;;;6.88;;
80481;SDS011;69797;43.864;21.410;2023-07-24T00:13:20;15.60;;;7.28;;
80481;SDS011;69797;43.864;21.410;2023-07-24T00:15:46;17.13;;;8.15;;
80481;SDS011;69797;43.864;21.410;2023-07-24T00:18:15;14.57;;;7.20;;
80481;SDS011;69797;43.864;21.410;2023-07-24T00:20:42;15.00;;;6.97;;
80481;SDS011;69797;43.864;21.410;2023-07-24T00:23:09;16.58;;;7.30;;
80481;SDS011;69797;43.864;21.410;2023-07-24T00:25:36;15.80;;;7.60;;
80481;SDS011;69797;43.864;21.410;2023-07-24T00:28:03;17.35;;;7.90;;
80481;SDS011;69797;43.864;21.410;2023-07-24T00:30:29;19.27;;;7.73;;
80481;SDS011;69797;43.864;21.410;2023-07-24T00:32:56;14.32;;;7.22;;
80481;SDS011;69797;43.864;21.410;2023-07-24T00:35:23;13.80;;;8.43;;
80481;SDS011;69797;43.864;21.410;2023-07-24T00:37:51;15.25;;;7.45;;
80481;SDS011;69797;43.864;21.410;2023-07-24T00:40:18;13.68;;;6.82;;
80481;SDS011;69797;43.864;21.410;2023-07-24T00:42:48;16.47;;;7.97;;
80481;SDS011;69797;43.864;21.410;2023-07-24T00:45:15;17.55;;;7.00;;
80481;SDS011;69797;43.864;21.410;2023-07-24T00:47:45;19.67;;;7.28;;
80481;SDS011;69797;43.864;21.410;2023-07-24T00:50:12;16.77;;;7.43;;
80481;SDS011;69797;43.864;21.410;2023-07-24T00:52:39;18.70;;;7.68;;
80481;SDS011;69797;43.864;21.410;2023-07-24T00:55:07;18.57;;;7.37;;
80481;SDS011;69797;43.864;21.410;2023-07-24T00:57:35;20.90;;;7.70;;
80481;SDS011;69797;43.864;21.410;2023-07-24T01:00:02;20.92;;;7.55;;
80481;SDS011;69797;43.864;21.410;2023-07-24T01:02:30;19.20;;;7.28;;
80481;SDS011;69797;43.864;21.410;2023-07-24T01:04:58;18.85;;;8.25;;
80481;SDS011;69797;43.864;21.410;2023-07-24T01:07:25;17.93;;;7.67;;
80481;SDS011;69797;43.864;21.410;2023-07-24T01:09:52;21.45;;;7.10;;
80481;SDS011;69797;43.864;21.410;2023-07-24T01:18:16;15.80;;;7.22;;
80481;SDS011;69797;43.864;21.410;2023-07-24T01:20:48;15.07;;;7.53;;
80481;SDS011;69797;43.864;21.410;2023-07-24T01:25:52;17.13;;;6.65;;
80481;SDS011;69797;43.864;21.410;2023-07-24T01:28:21;12.07;;;6.95;;
80481;SDS011;69797;43.864;21.410;2023-07-24T01:30:47;14.45;;;7.53;;
80481;SDS011;69797;43.864;21.410;2023-07-24T01:33:18;13.03;;;8.53;;
80481;SDS011;69797;43.864;21.410;2023-07-24T01:35:45;16.35;;;9.20;;
80481;SDS011;69797;43.864;21.410;2023-07-24T01:38:16;16.02;;;8.45;;
80481;SDS011;69797;43.864;21.410;2023-07-24T01:40:43;16.42;;;7.57;;
80481;SDS011;69797;43.864;21.410;2023-07-24T01:43:11;13.98;;;7.35;;
80481;SDS011;69797;43.864;21.410;2023-07-24T01:45:38;14.93;;;7.20;;
80481;SDS011;69797;43.864;21.410;2023-07-24T01:48:05;15.68;;;7.20;;
80481;SDS011;69797;43.864;21.410;2023-07-24T01:50:32;18.02;;;7.32;;
80481;SDS011;69797;43.864;21.410;2023-07-24T01:52:59;16.25;;;6.60;;
80481;SDS011;69797;43.864;21.410;2023-07-24T01:55:25;13.95;;;6.95;;
80481;SDS011;69797;43.864;21.410;2023-07-24T01:57:53;13.07;;;7.30;;
80481;SDS011;69797;43.864;21.410;2023-07-24T02:00:21;13.68;;;7.07;;
80481;SDS011;69797;43.864;21.410;2023-07-24T02:02:48;13.65;;;7.78;;
80481;SDS011;69797;43.864;21.410;2023-07-24T02:05:15;11.13;;;6.75;;
80481;SDS011;69797;43.864;21.410;2023-07-24T02:07:42;12.70;;;7.32;;
80481;SDS011;69797;43.864;21.410;2023-07-24T02:10:09;12.17;;;7.13;;
80481;SDS011;69797;43.864;21.410;2023-07-24T02:12:35;14.50;;;7.18;;
80481;SDS011;69797;43.864;21.410;2023-07-24T02:15:02;13.95;;;7.10;;
80481;SDS011;69797;43.864;21.410;2023-07-24T02:17:29;12.68;;;6.93;;
80481;SDS011;69797;43.864;21.410;2023-07-24T02:19:56;15.63;;;7.07;;
80481;SDS011;69797;43.864;21.410;2023-07-24T02:22:25;14.90;;;7.07;;
80481;SDS011;69797;43.864;21.410;2023-07-24T02:24:52;11.70;;;7.15;;
80481;SDS011;69797;43.864;21.410;2023-07-24T02:27:29;14.27;;;7.85;;
80481;SDS011;69797;43.864;21.410;2023-07-24T02:30:03;13.32;;;7.97;;
80481;SDS011;69797;43.864;21.410;2023-07-24T02:32:30;15.82;;;7.75;;
80481;SDS011;69797;43.864;21.410;2023-07-24T02:34:58;13.40;;;7.50;;
80481;SDS011;69797;43.864;21.410;2023-07-24T02:37:25;17.52;;;8.93;;
80481;SDS011;69797;43.864;21.410;2023-07-24T02:39:52;14.43;;;8.27;;
80481;SDS011;69797;43.864;21.410;2023-07-24T02:42:19;15.63;;;7.20;;
80481;SDS011;69797;43.864;21.410;2023-07-24T02:44:46;14.13;;;7.45;;
80481;SDS011;69797;43.864;21.410;2023-07-24T02:47:13;10.93;;;7.47;;
80481;SDS011;69797;43.864;21.410;2023-07-24T02:49:40;12.77;;;7.72;;
80481;SDS011;69797;43.864;21.410;2023-07-24T02:52:06;14.05;;;7.82;;
80481;SDS011;69797;43.864;21.410;2023-07-24T02:54:33;14.15;;;8.77;;
80481;SDS011;69797;43.864;21.410;2023-07-24T02:57:00;13.63;;;8.07;;
80481;SDS011;69797;43.864;21.410;2023-07-24T02:59:28;13.60;;;8.37;;
80481;SDS011;69797;43.864;21.410;2023-07-24T03:01:56;14.00;;;7.45;;
80481;SDS011;69797;43.864;21.410;2023-07-24T03:04:23;14.05;;;7.45;;
80481;SDS011;69797;43.864;21.410;2023-07-24T03:06:50;13.57;;;8.25;;
80481;SDS011;69797;43.864;21.410;2023-07-24T03:09:17;13.45;;;8.60;;
80481;SDS011;69797;43.864;21.410;2023-07-24T03:11:43;12.77;;;8.60;;
80481;SDS011;69797;43.864;21.410;2023-07-24T03:14:10;12.38;;;8.40;;
80481;SDS011;69797;43.864;21.410;2023-07-24T03:16:37;14.10;;;9.00;;
80481;SDS011;69797;43.864;21.410;2023-07-24T03:19:04;13.00;;;8.60;;
80481;SDS011;69797;43.864;21.410;2023-07-24T03:21:33;13.68;;;8.88;;
80481;SDS011;69797;43.864;21.410;2023-07-24T03:24:00;12.63;;;8.50;;
80481;SDS011;69797;43.864;21.410;2023-07-24T03:26:27;16.80;;;8.95;;
80481;SDS011;69797;43.864;21.410;2023-07-24T03:28:54;14.70;;;8.70;;
80481;SDS011;69797;43.864;21.410;2023-07-24T03:31:21;14.07;;;8.80;;
80481;SDS011;69797;43.864;21.410;2023-07-24T03:33:48;14.88;;;9.30;;
80481;SDS011;69797;43.864;21.410;2023-07-24T03:36:15;14.20;;;9.23;;
80481;SDS011;69797;43.864;21.410;2023-07-24T03:38:42;13.18;;;9.20;;
80481;SDS011;69797;43.864;21.410;2023-07-24T03:41:09;14.88;;;9.15;;
80481;SDS011;69797;43.864;21.410;2023-07-24T03:43:35;16.55;;;9.52;;
80481;SDS011;69797;43.864;21.410;2023-07-24T03:46:02;16.30;;;9.35;;
80481;SDS011;69797;43.864;21.410;2023-07-24T03:48:29;15.23;;;8.87;;
80481;SDS011;69797;43.864;21.410;2023-07-24T03:51:00;12.93;;;8.77;;
80481;SDS011;69797;43.864;21.410;2023-07-24T03:53:27;13.75;;;8.45;;
80481;SDS011;69797;43.864;21.410;2023-07-24T03:55:54;14.63;;;8.98;;
80481;SDS011;69797;43.864;21.410;2023-07-24T03:58:21;14.13;;;8.32;;
80481;SDS011;69797;43.864;21.410;2023-07-24T04:00:48;13.63;;;7.87;;
80481;SDS011;69797;43.864;21.410;2023-07-24T04:03:15;13.00;;;8.25;;
80481;SDS011;69797;43.864;21.410;2023-07-24T04:05:42;12.00;;;8.25;;
80481;SDS011;69797;43.864;21.410;2023-07-24T04:08:09;15.20;;;8.65;;
80481;SDS011;69797;43.864;21.410;2023-07-24T04:10:36;13.63;;;8.10;;
80481;SDS011;69797;43.864;21.410;2023-07-24T04:13:02;12.23;;;8.17;;
80481;SDS011;69797;43.864;21.410;2023-07-24T04:15:29;12.38;;;8.00;;
80481;SDS011;69797;43.864;21.410;2023-07-24T04:17:56;14.55;;;8.55;;
80481;SDS011;69797;43.864;21.410;2023-07-24T04:20:23;11.40;;;7.82;;
80481;SDS011;69797;43.864;21.410;2023-07-24T04:22:50;12.45;;;8.13;;
80481;SDS011;69797;43.864;21.410;2023-07-24T04:25:19;16.53;;;8.43;;
80481;SDS011;69797;43.864;21.410;2023-07-24T04:27:46;23.83;;;10.60;;
80481;SDS011;69797;43.864;21.410;2023-07-24T04:30:13;16.23;;;9.32;;
80481;SDS011;69797;43.864;21.410;2023-07-24T04:32:40;14.95;;;8.80;;
80481;SDS011;69797;43.864;21.410;2023-07-24T04:35:07;15.10;;;8.48;;
80481;SDS011;69797;43.864;21.410;2023-07-24T04:37:34;15.20;;;8.57;;
80481;SDS011;69797;43.864;21.410;2023-07-24T04:40:01;14.25;;;8.55;;
80481;SDS011;69797;43.864;21.410;2023-07-24T04:42:28;13.52;;;8.95;;
80481;SDS011;69797;43.864;21.410;2023-07-24T04:44:55;13.05;;;8.43;;
80481;SDS011;69797;43.864;21.410;2023-07-24T04:47:22;13.07;;;8.50;;
80481;SDS011;69797;43.864;21.410;2023-07-24T04:49:49;13.50;;;8.60;;
80481;SDS011;69797;43.864;21.410;2023-07-24T04:52:15;12.77;;;8.77;;
80481;SDS011;69797;43.864;21.410;2023-07-24T04:54:42;13.20;;;9.20;;
80481;SDS011;69797;43.864;21.410;2023-07-24T04:57:09;12.88;;;9.02;;
80481;SDS011;69797;43.864;21.410;2023-07-24T04:59:36;13.93;;;9.40;;
80481;SDS011;69797;43.864;21.410;2023-07-24T05:02:02;13.20;;;9.37;;
80481;SDS011;69797;43.864;21.410;2023-07-24T05:04:30;15.00;;;9.65;;
80481;SDS011;69797;43.864;21.410;2023-07-24T05:06:57;11.85;;;8.07;;
80481;SDS011;69797;43.864;21.410;2023-07-24T05:09:23;13.05;;;8.77;;
80481;SDS011;69797;43.864;21.410;2023-07-24T05:11:50;11.68;;;8.18;;
80481;SDS011;69797;43.864;21.410;2023-07-24T05:14:17;14.90;;;8.27;;
80481;SDS011;69797;43.864;21.410;2023-07-24T05:16:44;10.32;;;8.23;;
80481;SDS011;69797;43.864;21.410;2023-07-24T05:19:10;13.32;;;7.72;;
80481;SDS011;69797;43.864;21.410;2023-07-24T05:21:37;10.68;;;7.95;;
80481;SDS011;69797;43.864;21.410;2023-07-24T05:24:04;11.02;;;7.43;;
80481;SDS011;69797;43.864;21.410;2023-07-24T05:26:31;10.13;;;7.20;;
80481;SDS011;69797;43.864;21.410;2023-07-24T05:28:58;11.00;;;7.85;;
80481;SDS011;69797;43.864;21.410;2023-07-24T05:31:25;10.93;;;8.10;;
80481;SDS011;69797;43.864;21.410;2023-07-24T05:33:51;11.13;;;7.45;;
80481;SDS011;69797;43.864;21.410;2023-07-24T05:36:18;10.27;;;7.78;;
80481;SDS011;69797;43.864;21.410;2023-07-24T05:38:45;10.83;;;8.00;;
80481;SDS011;69797;43.864;21.410;2023-07-24T05:41:12;11.77;;;7.82;;
80481;SDS011;69797;43.864;21.410;2023-07-24T05:43:38;12.38;;;7.68;;
80481;SDS011;69797;43.864;21.410;2023-07-24T05:46:05;10.07;;;7.18;;
80481;SDS011;69797;43.864;21.410;2023-07-24T05:48:32;10.55;;;7.38;;
80481;SDS011;69797;43.864;21.410;2023-07-24T05:50:59;13.03;;;8.53;;
80481;SDS011;69797;43.864;21.410;2023-07-24T05:53:26;11.65;;;8.77;;
80481;SDS011;69797;43.864;21.410;2023-07-24T05:55:59;11.43;;;8.30;;
80481;SDS011;69797;43.864;21.410;2023-07-24T05:58:26;11.65;;;9.07;;
80481;SDS011;69797;43.864;21.410;2023-07-24T06:00:53;13.50;;;9.13;;
80481;SDS011;69797;43.864;21.410;2023-07-24T06:03:22;12.30;;;8.60;;
80481;SDS011;69797;43.864;21.410;2023-07-24T06:05:53;14.35;;;9.57;;
80481;SDS011;69797;43.864;21.410;2023-07-24T06:08:23;14.13;;;9.23;;
80481;SDS011;69797;43.864;21.410;2023-07-24T06:10:50;13.73;;;9.57;;
80481;SDS011;69797;43.864;21.410;2023-07-24T06:13:17;15.88;;;10.82;;
80481;SDS011;69797;43.864;21.410;2023-07-24T06:15:46;14.80;;;10.40;;
80481;SDS011;69797;43.864;21.410;2023-07-24T06:18:16;14.77;;;9.32;;
80481;SDS011;69797;43.864;21.410;2023-07-24T06:20:42;12.68;;;9.68;;
80481;SDS011;69797;43.864;21.410;2023-07-24T06:23:09;13.90;;;10.13;;
80481;SDS011;69797;43.864;21.410;2023-07-24T06:25:36;14.73;;;10.90;;
80481;SDS011;69797;43.864;21.410;2023-07-24T06:28:03;17.77;;;10.70;;
80481;SDS011;69797;43.864;21.410;2023-07-24T06:30:30;17.77;;;11.45;;
80481;SDS011;69797;43.864;21.410;2023-07-24T06:32:56;13.85;;;10.75;;
80481;SDS011;69797;43.864;21.410;2023-07-24T06:35:23;14.95;;;10.68;;
80481;SDS011;69797;43.864;21.410;2023-07-24T06:37:50;14.38;;;11.63;;
80481;SDS011;69797;43.864;21.410;2023-07-24T06:40:17;14.53;;;10.50;;
80481;SDS011;69797;43.864;21.410;2023-07-24T06:42:44;14.18;;;10.77;;
80481;SDS011;69797;43.864;21.410;2023-07-24T06:45:11;16.67;;;11.38;;
80481;SDS011;69797;43.864;21.410;2023-07-24T06:47:38;14.32;;;11.02;;
80481;SDS011;69797;43.864;21.410;2023-07-24T06:50:05;16.20;;;10.93;;
80481;SDS011;69797;43.864;21.410;2023-07-24T06:52:33;13.43;;;10.63;;
80481;SDS011;69797;43.864;21.410;2023-07-24T06:54:59;12.68;;;10.48;;
80481;SDS011;69797;43.864;21.410;2023-07-24T06:57:26;14.05;;;10.93;;
80481;SDS011;69797;43.864;21.410;2023-07-24T06:59:53;13.02;;;10.85;;
80481;SDS011;69797;43.864;21.410;2023-07-24T07:02:20;10.30;;;9.20;;
80481;SDS011;69797;43.864;21.410;2023-07-24T07:04:47;10.93;;;8.70;;
80481;SDS011;69797;43.864;21.410;2023-07-24T07:07:14;10.98;;;8.95;;
80481;SDS011;69797;43.864;21.410;2023-07-24T07:09:41;9.75;;;8.75;;
80481;SDS011;69797;43.864;21.410;2023-07-24T07:12:08;10.10;;;9.00;;
80481;SDS011;69797;43.864;21.410;2023-07-24T07:14:34;10.45;;;9.35;;
80481;SDS011;69797;43.864;21.410;2023-07-24T07:17:01;10.63;;;9.33;;
80481;SDS011;69797;43.864;21.410;2023-07-24T07:19:28;9.40;;;8.50;;
80481;SDS011;69797;43.864;21.410;2023-07-24T07:21:55;9.15;;;8.15;;
80481;SDS011;69797;43.864;21.410;2023-07-24T07:24:22;10.73;;;9.32;;
80481;SDS011;69797;43.864;21.410;2023-07-24T07:26:48;11.13;;;9.68;;
80481;SDS011;69797;43.864;21.410;2023-07-24T07:29:15;10.00;;;9.00;;
80481;SDS011;69797;43.864;21.410;2023-07-24T07:31:42;10.30;;;9.30;;
80481;SDS011;69797;43.864;21.410;2023-07-24T07:34:09;10.40;;;8.98;;
80481;SDS011;69797;43.864;21.410;2023-07-24T07:36:36;9.40;;;8.40;;
80481;SDS011;69797;43.864;21.410;2023-07-24T07:39:05;12.35;;;8.43;;
80481;SDS011;69797;43.864;21.410;2023-07-24T07:41:32;9.80;;;8.20;;
80481;SDS011;69797;43.864;21.410;2023-07-24T07:43:59;10.23;;;8.82;;
80481;SDS011;69797;43.864;21.410;2023-07-24T07:46:26;10.15;;;8.02;;
80481;SDS011;69797;43.864;21.410;2023-07-24T07:48:53;10.55;;;8.77;;
80481;SDS011;69797;43.864;21.410;2023-07-24T07:51:20;10.13;;;8.57;;
80481;SDS011;69797;43.864;21.410;2023-07-24T07:53:46;9.47;;;8.30;;
80481;SDS011;69797;43.864;21.410;2023-07-24T07:56:13;10.50;;;8.25;;
80481;SDS011;69797;43.864;21.410;2023-07-24T07:58:40;9.23;;;7.50;;
80481;SDS011;69797;43.864;21.410;2023-07-24T08:01:09;9.20;;;7.80;;
80481;SDS011;69797;43.864;21.410;2023-07-24T08:03:41;9.50;;;7.90;;
80481;SDS011;69797;43.864;21.410;2023-07-24T08:06:08;10.57;;;8.00;;
80481;SDS011;69797;43.864;21.410;2023-07-24T08:08:36;9.38;;;8.27;;
80481;SDS011;69797;43.864;21.410;2023-07-24T08:11:06;9.63;;;8.52;;
80481;SDS011;69797;43.864;21.410;2023-07-24T08:13:33;11.18;;;8.90;;
80481;SDS011;69797;43.864;21.410;2023-07-24T08:16:00;10.73;;;8.18;;
80481;SDS011;69797;43.864;21.410;2023-07-24T08:18:30;9.60;;;8.17;;
80481;SDS011;69797;43.864;21.410;2023-07-24T08:20:57;10.98;;;8.23;;
80481;SDS011;69797;43.864;21.410;2023-07-24T08:23:24;9.93;;;8.50;;
80481;SDS011;69797;43.864;21.410;2023-07-24T08:25:54;13.93;;;8.98;;
80481;SDS011;69797;43.864;21.410;2023-07-24T08:28:21;10.43;;;8.60;;
80481;SDS011;69797;43.864;21.410;2023-07-24T08:30:58;12.13;;;8.50;;
80481;SDS011;69797;43.864;21.410;2023-07-24T08:33:27;10.43;;;9.13;;
80481;SDS011;69797;43.864;21.410;2023-07-24T08:36:01;13.00;;;8.93;;
80481;SDS011;69797;43.864;21.410;2023-07-24T08:38:29;11.05;;;8.20;;
80481;SDS011;69797;43.864;21.410;2023-07-24T08:41:00;12.25;;;9.60;;
80481;SDS011;69797;43.864;21.410;2023-07-24T08:43:31;10.27;;;9.03;;
80481;SDS011;69797;43.864;21.410;2023-07-24T08:45:59;10.68;;;9.40;;
80481;SDS011;69797;43.864;21.410;2023-07-24T08:48:28;11.95;;;9.70;;
80481;SDS011;69797;43.864;21.410;2023-07-24T08:51:03;10.40;;;9.15;;
80481;SDS011;69797;43.864;21.410;2023-07-24T08:53:41;11.25;;;9.18;;
80481;SDS011;69797;43.864;21.410;2023-07-24T08:56:10;11.37;;;9.43;;
80481;SDS011;69797;43.864;21.410;2023-07-24T08:58:41;11.30;;;9.45;;
80481;SDS011;69797;43.864;21.410;2023-07-24T09:01:10;12.48;;;9.35;;
80481;SDS011;69797;43.864;21.410;2023-07-24T09:03:37;11.25;;;9.85;;
80481;SDS011;69797;43.864;21.410;2023-07-24T09:06:04;10.48;;;9.38;;
80481;SDS011;69797;43.864;21.410;2023-07-24T09:08:37;11.33;;;8.60;;
80481;SDS011;69797;43.864;21.410;2023-07-24T09:11:05;10.88;;;9.07;;
80481;SDS011;69797;43.864;21.410;2023-07-24T09:13:35;11.57;;;9.70;;
80481;SDS011;69797;43.864;21.410;2023-07-24T09:16:03;10.70;;;9.52;;
80481;SDS011;69797;43.864;21.410;2023-07-24T09:18:40;10.57;;;9.57;;
80481;SDS011;69797;43.864;21.410;2023-07-24T09:21:11;11.37;;;10.17;;
80481;SDS011;69797;43.864;21.410;2023-07-24T09:23:38;11.43;;;7.15;;
80481;SDS011;69797;43.864;21.410;2023-07-24T09:26:09;10.32;;;7.13;;
80481;SDS011;69797;43.864;21.410;2023-07-24T09:28:36;13.18;;;7.68;;
80481;SDS011;69797;43.864;21.410;2023-07-24T09:31:03;9.98;;;7.70;;
80481;SDS011;69797;43.864;21.410;2023-07-24T09:33:38;11.90;;;7.60;;
80481;SDS011;69797;43.864;21.410;2023-07-24T09:36:13;12.48;;;7.18;;
80481;SDS011;69797;43.864;21.410;2023-07-24T09:38:40;10.93;;;7.43;;
80481;SDS011;69797;43.864;21.410;2023-07-24T09:41:08;11.38;;;7.22;;
80481;SDS011;69797;43.864;21.410;2023-07-24T09:43:35;11.55;;;7.30;;
80481;SDS011;69797;43.864;21.410;2023-07-24T09:46:06;14.07;;;7.27;;
80481;SDS011;69797;43.864;21.410;2023-07-24T09:48:35;10.68;;;7.25;;
80481;SDS011;69797;43.864;21.410;2023-07-24T09:51:08;11.27;;;6.93;;
80481;SDS011;69797;43.864;21.410;2023-07-24T09:54:15;11.13;;;7.57;;
80481;SDS011;69797;43.864;21.410;2023-07-24T09:56:37;13.50;;;7.47;;
80481;SDS011;69797;43.864;21.410;2023-07-24T09:59:19;12.30;;;7.60;;
80481;SDS011;69797;43.864;21.410;2023-07-24T10:01:47;12.23;;;7.50;;
80481;SDS011;69797;43.864;21.410;2023-07-24T10:04:18;12.63;;;7.78;;
80481;SDS011;69797;43.864;21.410;2023-07-24T10:06:46;15.38;;;8.85;;
80481;SDS011;69797;43.864;21.410;2023-07-24T10:09:13;12.45;;;7.55;;
80481;SDS011;69797;43.864;21.410;2023-07-24T10:11:40;12.60;;;7.30;;
80481;SDS011;69797;43.864;21.410;2023-07-24T10:14:07;12.85;;;7.90;;
80481;SDS011;69797;43.864;21.410;2023-07-24T10:16:36;13.27;;;8.02;;
80481;SDS011;69797;43.864;21.410;2023-07-24T10:19:12;14.38;;;8.00;;
80481;SDS011;69797;43.864;21.410;2023-07-24T10:21:45;14.75;;;7.70;;
80481;SDS011;69797;43.864;21.410;2023-07-24T10:24:14;13.70;;;7.40;;
80481;SDS011;69797;43.864;21.410;2023-07-24T10:27:07;15.55;;;8.18;;
80481;SDS011;69797;43.864;21.410;2023-07-24T10:29:34;15.77;;;8.20;;
80481;SDS011;69797;43.864;21.410;2023-07-24T10:32:02;16.77;;;9.05;;
80481;SDS011;69797;43.864;21.410;2023-07-24T10:34:36;12.90;;;8.00;;
80481;SDS011;69797;43.864;21.410;2023-07-24T10:37:06;15.80;;;8.67;;
80481;SDS011;69797;43.864;21.410;2023-07-24T10:39:39;15.73;;;8.57;;
80481;SDS011;69797;43.864;21.410;2023-07-24T10:42:10;13.90;;;8.00;;
80481;SDS011;69797;43.864;21.410;2023-07-24T10:44:37;11.57;;;7.78;;
80481;SDS011;69797;43.864;21.410;2023-07-24T10:47:04;15.23;;;8.40;;
80481;SDS011;69797;43.864;21.410;2023-07-24T10:49:33;16.83;;;7.60;;
80481;SDS011;69797;43.864;21.410;2023-07-24T10:52:01;15.40;;;7.80;;
80481;SDS011;69797;43.864;21.410;2023-07-24T10:54:28;16.00;;;8.45;;
80481;SDS011;69797;43.864;21.410;2023-07-24T10:56:58;13.93;;;7.93;;
80481;SDS011;69797;43.864;21.410;2023-07-24T10:59:38;12.15;;;8.27;;
80481;SDS011;69797;43.864;21.410;2023-07-24T11:02:06;14.20;;;7.47;;
80481;SDS011;69797;43.864;21.410;2023-07-24T11:04:36;14.18;;;8.35;;
80481;SDS011;69797;43.864;21.410;2023-07-24T11:07:03;13.25;;;7.18;;
80481;SDS011;69797;43.864;21.410;2023-07-24T11:09:36;13.93;;;7.28;;
80481;SDS011;69797;43.864;21.410;2023-07-24T11:12:10;14.00;;;7.88;;
80481;SDS011;69797;43.864;21.410;2023-07-24T11:14:48;13.87;;;8.07;;
80481;SDS011;69797;43.864;21.410;2023-07-24T11:17:35;13.15;;;7.05;;
80481;SDS011;69797;43.864;21.410;2023-07-24T11:22:41;18.05;;;7.90;;
80481;SDS011;69797;43.864;21.410;2023-07-24T11:25:12;15.07;;;8.25;;
80481;SDS011;69797;43.864;21.410;2023-07-24T11:27:41;13.33;;;7.77;;
80481;SDS011;69797;43.864;21.410;2023-07-24T11:30:11;17.67;;;7.80;;
80481;SDS011;69797;43.864;21.410;2023-07-24T11:32:45;12.60;;;7.47;;
80481;SDS011;69797;43.864;21.410;2023-07-24T11:35:12;12.82;;;8.07;;
80481;SDS011;69797;43.864;21.410;2023-07-24T11:37:44;14.98;;;7.78;;
80481;SDS011;69797;43.864;21.410;2023-07-24T11:40:11;14.20;;;8.07;;
80481;SDS011;69797;43.864;21.410;2023-07-24T11:42:42;13.60;;;7.55;;
80481;SDS011;69797;43.864;21.410;2023-07-24T11:45:13;13.30;;;7.65;;
80481;SDS011;69797;43.864;21.410;2023-07-24T11:47:41;13.00;;;7.75;;
80481;SDS011;69797;43.864;21.410;2023-07-24T11:50:13;11.90;;;7.80;;
80481;SDS011;69797;43.864;21.410;2023-07-24T11:52:47;15.10;;;7.43;;
80481;SDS011;69797;43.864;21.410;2023-07-24T11:55:19;13.10;;;7.53;;
80481;SDS011;69797;43.864;21.410;2023-07-24T11:57:56;13.85;;;7.57;;
80481;SDS011;69797;43.864;21.410;2023-07-24T12:00:27;12.95;;;7.30;;
80481;SDS011;69797;43.864;21.410;2023-07-24T12:03:00;14.10;;;7.45;;
80481;SDS011;69797;43.864;21.410;2023-07-24T12:05:37;13.17;;;6.97;;
80481;SDS011;69797;43.864;21.410;2023-07-24T12:08:08;14.30;;;8.73;;
80481;SDS011;69797;43.864;21.410;2023-07-24T12:10:38;12.25;;;7.30;;
80481;SDS011;69797;43.864;21.410;2023-07-24T12:13:06;13.05;;;7.68;;
80481;SDS011;69797;43.864;21.410;2023-07-24T12:15:33;12.63;;;7.53;;
80481;SDS011;69797;43.864;21.410;2023-07-24T12:18:02;12.63;;;7.37;;
80481;SDS011;69797;43.864;21.410;2023-07-24T12:20:30;15.38;;;7.70;;
80481;SDS011;69797;43.864;21.410;2023-07-24T12:22:58;12.27;;;7.88;;
80481;SDS011;69797;43.864;21.410;2023-07-24T12:25:24;13.15;;;8.00;;
80481;SDS011;69797;43.864;21.410;2023-07-24T12:27:54;12.95;;;8.13;;
80481;SDS011;69797;43.864;21.410;2023-07-24T12:30:21;12.93;;;8.37;;
80481;SDS011;69797;43.864;21.410;2023-07-24T12:32:54;13.95;;;7.75;;
80481;SDS011;69797;43.864;21.410;2023-07-24T12:35:24;16.20;;;8.43;;
80481;SDS011;69797;43.864;21.410;2023-07-24T12:37:51;12.43;;;7.50;;
80481;SDS011;69797;43.864;21.410;2023-07-24T12:40:18;13.60;;;7.55;;
80481;SDS011;69797;43.864;21.410;2023-07-24T12:42:45;14.37;;;7.60;;
80481;SDS011;69797;43.864;21.410;2023-07-24T12:45:12;15.07;;;7.75;;
80481;SDS011;69797;43.864;21.410;2023-07-24T12:47:38;12.93;;;7.55;;
80481;SDS011;69797;43.864;21.410;2023-07-24T12:50:05;13.75;;;7.95;;
80481;SDS011;69797;43.864;21.410;2023-07-24T12:52:34;12.20;;;7.38;;
80481;SDS011;69797;43.864;21.410;2023-07-24T12:55:03;16.03;;;7.97;;
80481;SDS011;69797;43.864;21.410;2023-07-24T12:57:31;14.50;;;7.57;;
80481;SDS011;69797;43.864;21.410;2023-07-24T12:59:58;16.30;;;7.70;;
80481;SDS011;69797;43.864;21.410;2023-07-24T13:02:28;15.95;;;7.38;;
80481;SDS011;69797;43.864;21.410;2023-07-24T13:04:55;12.98;;;7.28;;
80481;SDS011;69797;43.864;21.410;2023-07-24T13:07:24;14.27;;;7.30;;
80481;SDS011;69797;43.864;21.410;2023-07-24T13:09:50;12.48;;;7.43;;
80481;SDS011;69797;43.864;21.410;2023-07-24T13:12:17;12.48;;;7.20;;
80481;SDS011;69797;43.864;21.410;2023-07-24T13:14:44;15.45;;;7.95;;
80481;SDS011;69797;43.864;21.410;2023-07-24T13:17:11;12.95;;;7.60;;
80481;SDS011;69797;43.864;21.410;2023-07-24T13:19:38;12.43;;;7.33;;
80481;SDS011;69797;43.864;21.410;2023-07-24T13:22:06;15.93;;;7.03;;
80481;SDS011;69797;43.864;21.410;2023-07-24T13:24:33;15.27;;;7.70;;
80481;SDS011;69797;43.864;21.410;2023-07-24T13:27:00;12.45;;;7.53;;
80481;SDS011;69797;43.864;21.410;2023-07-24T13:29:29;12.23;;;7.20;;
80481;SDS011;69797;43.864;21.410;2023-07-24T13:31:58;13.37;;;7.30;;
80481;SDS011;69797;43.864;21.410;2023-07-24T13:34:25;15.45;;;8.30;;
80481;SDS011;69797;43.864;21.410;2023-07-24T13:36:51;11.98;;;7.20;;
80481;SDS011;69797;43.864;21.410;2023-07-24T13:39:21;13.63;;;7.20;;
80481;SDS011;69797;43.864;21.410;2023-07-24T13:41:48;14.07;;;8.20;;
80481;SDS011;69797;43.864;21.410;2023-07-24T13:44:16;13.57;;;7.57;;
80481;SDS011;69797;43.864;21.410;2023-07-24T13:46:43;14.52;;;7.43;;
80481;SDS011;69797;43.864;21.410;2023-07-24T13:49:10;14.07;;;8.25;;
80481;SDS011;69797;43.864;21.410;2023-07-24T13:51:37;14.57;;;7.72;;
80481;SDS011;69797;43.864;21.410;2023-07-24T13:54:03;14.18;;;7.80;;
80481;SDS011;69797;43.864;21.410;2023-07-24T13:56:30;13.90;;;7.40;;
80481;SDS011;69797;43.864;21.410;2023-07-24T13:59:01;12.85;;;7.43;;
80481;SDS011;69797;43.864;21.410;2023-07-24T14:01:29;14.32;;;7.50;;
80481;SDS011;69797;43.864;21.410;2023-07-24T14:03:57;12.80;;;7.32;;
80481;SDS011;69797;43.864;21.410;2023-07-24T14:06:24;12.15;;;7.68;;
80481;SDS011;69797;43.864;21.410;2023-07-24T14:08:50;13.63;;;8.00;;
80481;SDS011;69797;43.864;21.410;2023-07-24T14:11:17;12.10;;;7.22;;
80481;SDS011;69797;43.864;21.410;2023-07-24T14:13:44;14.48;;;8.00;;
80481;SDS011;69797;43.864;21.410;2023-07-24T14:16:12;13.60;;;8.10;;
80481;SDS011;69797;43.864;21.410;2023-07-24T14:18:39;14.18;;;7.63;;
80481;SDS011;69797;43.864;21.410;2023-07-24T14:21:06;15.10;;;8.13;;
80481;SDS011;69797;43.864;21.410;2023-07-24T14:23:32;12.75;;;7.50;;
80481;SDS011;69797;43.864;21.410;2023-07-24T14:25:59;13.63;;;7.47;;
80481;SDS011;69797;43.864;21.410;2023-07-24T14:28:26;14.95;;;7.35;;
80481;SDS011;69797;43.864;21.410;2023-07-24T14:30:53;13.88;;;8.15;;
80481;SDS011;69797;43.864;21.410;2023-07-24T14:33:20;14.33;;;8.00;;
80481;SDS011;69797;43.864;21.410;2023-07-24T14:35:48;14.77;;;7.47;;
80481;SDS011;69797;43.864;21.410;2023-07-24T14:38:16;13.25;;;7.70;;